createdAt,value
2019-05-03T00:00:42.511Z,0
2019-05-03T00:01:52.779Z,0
2019-05-03T00:03:01.728Z,0
2019-05-03T00:04:12.001Z,0
2019-05-03T00:05:22.020Z,0
2019-05-03T00:06:32.058Z,0
2019-05-03T00:07:42.055Z,0
2019-05-03T00:08:52.101Z,0
2019-05-03T00:10:02.824Z,0
2019-05-03T00:11:12.630Z,0
2019-05-03T00:12:22.268Z,0
2019-05-03T00:13:32.487Z,0
2019-05-03T00:14:43.827Z,0
2019-05-03T00:15:54.662Z,0
2019-05-03T00:17:04.789Z,0
2019-05-03T00:18:13.929Z,0
2019-05-03T00:19:24.148Z,0
2019-05-03T00:20:35.103Z,0
2019-05-03T00:21:46.228Z,0
2019-05-03T00:22:57.177Z,0
2019-05-03T00:24:07.024Z,0
2019-05-03T00:25:17.431Z,0
2019-05-03T00:26:31.700Z,0
2019-05-03T00:27:42.745Z,0
2019-05-03T00:28:54.425Z,0
2019-05-03T00:30:05.320Z,0
2019-05-03T00:31:14.995Z,0
2019-05-03T00:32:26.642Z,0
2019-05-03T00:33:36.697Z,0
2019-05-03T00:34:48.872Z,0
2019-05-03T00:35:59.530Z,0
2019-05-03T00:37:09.623Z,0
2019-05-03T00:38:21.684Z,0
2019-05-03T00:39:32.448Z,0
2019-05-03T00:40:41.730Z,0
2019-05-03T00:41:52.206Z,0
2019-05-03T00:43:02.284Z,0
2019-05-03T00:44:13.917Z,0
2019-05-03T00:45:24.525Z,0
2019-05-03T00:46:35.183Z,0
2019-05-03T00:47:46.714Z,0
2019-05-03T00:48:56.812Z,0
2019-05-03T00:50:07.698Z,0
2019-05-03T00:51:19.309Z,0
2019-05-03T00:52:29.453Z,0
2019-05-03T00:53:38.763Z,0
2019-05-03T00:54:49.324Z,0
2019-05-03T00:56:01.577Z,0
2019-05-03T00:57:12.049Z,0
2019-05-03T00:58:22.362Z,0
2019-05-03T00:59:32.612Z,0
2019-05-03T01:00:43.890Z,0
2019-05-03T01:01:54.586Z,0
2019-05-03T01:03:04.660Z,0
2019-05-03T01:04:14.085Z,0
2019-05-03T01:05:24.900Z,0
2019-05-03T01:06:34.377Z,0
2019-05-03T01:07:44.686Z,0
2019-05-03T01:08:54.707Z,0
2019-05-03T01:10:04.979Z,0
2019-05-03T01:11:15.061Z,0
2019-05-03T01:12:26.226Z,0
2019-05-03T01:13:36.679Z,0
2019-05-03T01:14:46.748Z,0
2019-05-03T01:15:56.557Z,0
2019-05-03T01:17:07.465Z,0
2019-05-03T01:18:21.255Z,0
2019-05-03T01:19:32.007Z,0
2019-05-03T01:20:42.642Z,0
2019-05-03T01:21:53.921Z,0
2019-05-03T01:23:04.525Z,0
2019-05-03T01:24:14.726Z,0
2019-05-03T01:25:40.193Z,0
2019-05-03T01:26:52.422Z,0
2019-05-03T01:28:01.585Z,0
2019-05-03T01:29:12.138Z,0
2019-05-03T01:30:22.592Z,0
2019-05-03T01:31:31.965Z,0
2019-05-03T01:32:41.785Z,0
2019-05-03T01:33:54.040Z,0
2019-05-03T01:35:05.768Z,0
2019-05-03T01:36:16.609Z,0
2019-05-03T01:37:27.270Z,0
2019-05-03T01:38:38.579Z,0
2019-05-03T01:39:49.289Z,0
2019-05-03T01:41:01.560Z,0
2019-05-03T01:42:11.923Z,0
2019-05-03T01:43:22.161Z,0
2019-05-03T01:44:32.630Z,0
2019-05-03T01:45:42.449Z,0
2019-05-03T01:46:53.975Z,0
2019-05-03T01:48:04.234Z,0
2019-05-03T01:49:14.791Z,0
2019-05-03T01:50:25.301Z,0
2019-05-03T01:51:35.160Z,0
2019-05-03T01:52:46.506Z,0
2019-05-03T01:53:57.149Z,0
2019-05-03T01:55:08.287Z,0
2019-05-03T01:56:24.648Z,0
2019-05-03T01:57:34.885Z,0
2019-05-03T01:58:46.240Z,0
2019-05-03T01:59:56.693Z,0
2019-05-03T02:01:07.664Z,0
2019-05-03T02:02:17.140Z,0
2019-05-03T02:03:28.688Z,0
2019-05-03T02:04:41.638Z,0
2019-05-03T02:05:52.019Z,0
2019-05-03T02:07:02.268Z,0
2019-05-03T02:08:12.550Z,0
2019-05-03T02:09:23.838Z,0
2019-05-03T02:10:34.635Z,0
2019-05-03T02:11:44.426Z,0
2019-05-03T02:12:54.694Z,0
2019-05-03T02:14:06.494Z,0
2019-05-03T02:15:16.488Z,0
2019-05-03T02:16:26.484Z,0
2019-05-03T02:17:36.449Z,0
2019-05-03T02:18:47.040Z,0
2019-05-03T02:19:57.524Z,0
2019-05-03T02:21:09.645Z,0
2019-05-03T02:22:19.402Z,0
2019-05-03T02:23:29.631Z,0
2019-05-03T02:24:39.520Z,0
2019-05-03T02:26:05.569Z,0
2019-05-03T02:27:17.206Z,0
2019-05-03T02:28:26.698Z,0
2019-05-03T02:29:37.431Z,0
2019-05-03T02:30:48.830Z,0
2019-05-03T02:32:03.171Z,0
2019-05-03T02:33:15.953Z,0
2019-05-03T02:34:28.392Z,0
2019-05-03T02:35:42.936Z,0
2019-05-03T02:36:56.194Z,0
2019-05-03T02:38:08.279Z,0
2019-05-03T02:39:22.773Z,0
2019-05-03T02:40:33.780Z,0
2019-05-03T02:41:45.965Z,0
2019-05-03T02:43:07.679Z,0
2019-05-03T02:44:20.139Z,0
2019-05-03T02:45:35.163Z,0
2019-05-03T02:46:45.367Z,0
2019-05-03T02:47:57.515Z,0
2019-05-03T02:49:08.645Z,0
2019-05-03T02:50:21.166Z,0
2019-05-03T02:51:35.983Z,0
2019-05-03T02:52:48.177Z,0
2019-05-03T02:53:59.606Z,0
2019-05-03T02:55:10.711Z,0
2019-05-03T02:56:30.999Z,0
2019-05-03T02:57:46.211Z,0
2019-05-03T02:58:58.268Z,0
2019-05-03T03:00:09.694Z,0
2019-05-03T03:01:21.153Z,0
2019-05-03T03:02:36.407Z,0
2019-05-03T03:03:48.194Z,0
2019-05-03T03:04:58.815Z,0
2019-05-03T03:06:11.741Z,0
2019-05-03T03:07:25.622Z,0
2019-05-03T03:08:39.169Z,0
2019-05-03T03:09:50.114Z,0
2019-05-03T03:11:00.470Z,0
2019-05-03T03:12:15.218Z,0
2019-05-03T03:13:25.287Z,0
2019-05-03T03:14:36.180Z,0
2019-05-03T03:15:48.179Z,0
2019-05-03T03:16:58.504Z,0
2019-05-03T03:18:10.834Z,0
2019-05-03T03:19:22.720Z,0
2019-05-03T03:20:35.670Z,0
2019-05-03T03:21:48.968Z,0
2019-05-03T03:23:00.442Z,0
2019-05-03T03:24:13.015Z,0
2019-05-03T03:25:28.140Z,0
2019-05-03T03:26:51.813Z,0
2019-05-03T03:28:05.285Z,0
2019-05-03T03:29:15.973Z,0
2019-05-03T03:30:31.129Z,0
2019-05-03T03:31:50.518Z,0
2019-05-03T03:33:10.894Z,0
2019-05-03T03:34:30.727Z,0
2019-05-03T03:35:51.217Z,0
2019-05-03T03:37:18.082Z,0
2019-05-03T03:38:30.789Z,0
2019-05-03T03:39:45.715Z,0
2019-05-03T03:41:00.742Z,0
2019-05-03T03:42:12.880Z,0
2019-05-03T03:43:25.739Z,0
2019-05-03T03:44:38.628Z,0
2019-05-03T03:45:50.406Z,0
2019-05-03T03:47:05.197Z,0
2019-05-03T03:48:17.879Z,0
2019-05-03T03:49:28.703Z,0
2019-05-03T03:50:40.791Z,0
2019-05-03T03:51:53.077Z,0
2019-05-03T03:53:06.499Z,0
2019-05-03T03:54:17.980Z,0
2019-05-03T03:55:30.860Z,0
2019-05-03T03:57:08.240Z,0
2019-05-03T03:58:29.641Z,0
2019-05-03T03:59:41.256Z,0
2019-05-03T04:00:55.439Z,0
2019-05-03T04:02:08.016Z,0
2019-05-03T04:03:20.646Z,0
2019-05-03T04:04:35.734Z,0
2019-05-03T04:05:49.013Z,0
2019-05-03T04:07:06.485Z,0
2019-05-03T04:08:18.703Z,0
2019-05-03T04:09:30.479Z,0
2019-05-03T04:10:42.109Z,0
2019-05-03T04:11:56.395Z,0
2019-05-03T04:13:07.927Z,0
2019-05-03T04:14:18.388Z,0
2019-05-03T04:15:30.547Z,0
2019-05-03T04:16:45.286Z,0
2019-05-03T04:17:56.587Z,0
2019-05-03T04:19:08.290Z,0
2019-05-03T04:20:21.047Z,0
2019-05-03T04:21:35.732Z,0
2019-05-03T04:22:47.707Z,0
2019-05-03T04:24:00.431Z,0
2019-05-03T04:25:15.290Z,0
2019-05-03T04:26:31.696Z,0
2019-05-03T04:27:45.529Z,0
2019-05-03T04:28:56.032Z,0
2019-05-03T04:30:08.351Z,0
2019-05-03T04:31:19.907Z,0
2019-05-03T04:32:35.952Z,0
2019-05-03T04:33:47.597Z,0
2019-05-03T04:34:58.448Z,0
2019-05-03T04:36:10.276Z,0
2019-05-03T04:37:26.284Z,0
2019-05-03T04:38:38.061Z,0
2019-05-03T04:39:50.628Z,0
2019-05-03T04:41:05.804Z,0
2019-05-03T04:42:18.588Z,4
2019-05-03T04:43:31.355Z,4
2019-05-03T04:44:45.341Z,4
2019-05-03T04:45:58.225Z,0
2019-05-03T04:47:11.126Z,0
2019-05-03T04:48:25.274Z,4
2019-05-03T04:49:36.157Z,4
2019-05-03T04:50:48.152Z,4
2019-05-03T04:52:00.820Z,4
2019-05-03T04:53:15.927Z,4
2019-05-03T04:54:27.766Z,4
2019-05-03T04:55:40.777Z,4
2019-05-03T04:56:56.076Z,4
2019-05-03T04:58:07.242Z,0
2019-05-03T04:59:18.203Z,0
2019-05-03T05:00:30.451Z,0
2019-05-03T05:01:42.642Z,0
2019-05-03T05:02:55.113Z,0
2019-05-03T05:04:05.290Z,4
2019-05-03T05:05:17.823Z,4
2019-05-03T05:06:28.277Z,4
2019-05-03T05:07:39.678Z,4
2019-05-03T05:08:50.639Z,4
2019-05-03T05:10:05.142Z,4
2019-05-03T05:11:20.464Z,4
2019-05-03T05:12:32.043Z,4
2019-05-03T05:13:45.562Z,0
2019-05-03T05:14:58.747Z,4
2019-05-03T05:16:10.348Z,4
2019-05-03T05:17:21.238Z,0
2019-05-03T05:18:35.278Z,4
2019-05-03T05:19:46.982Z,4
2019-05-03T05:20:57.878Z,4
2019-05-03T05:22:10.569Z,4
2019-05-03T05:23:21.555Z,8
2019-05-03T05:24:34.500Z,4
2019-05-03T05:25:44.620Z,8
2019-05-03T05:26:55.003Z,8
2019-05-03T05:28:07.044Z,8
2019-05-03T05:29:17.068Z,4
2019-05-03T05:30:27.683Z,8
2019-05-03T05:31:38.052Z,8
2019-05-03T05:32:47.874Z,8
2019-05-03T05:33:59.015Z,8
2019-05-03T05:35:10.005Z,8
2019-05-03T05:36:20.180Z,8
2019-05-03T05:37:32.112Z,8
2019-05-03T05:38:42.544Z,8
2019-05-03T05:39:52.338Z,12
2019-05-03T05:41:02.571Z,8
2019-05-03T05:42:12.495Z,8
2019-05-03T05:43:22.113Z,12
2019-05-03T05:44:32.879Z,8
2019-05-03T05:45:42.394Z,8
2019-05-03T05:46:52.129Z,12
2019-05-03T05:48:01.947Z,8
2019-05-03T05:49:11.998Z,8
2019-05-03T05:50:22.079Z,8
2019-05-03T05:51:32.520Z,8
2019-05-03T05:52:42.228Z,8
2019-05-03T05:53:51.962Z,4
2019-05-03T05:55:04.470Z,8
2019-05-03T05:56:15.657Z,4
2019-05-03T05:57:25.579Z,8
2019-05-03T05:58:37.174Z,8
2019-05-03T05:59:47.805Z,8
2019-05-03T06:00:59.675Z,8
2019-05-03T06:02:09.741Z,4
2019-05-03T06:03:19.526Z,8
2019-05-03T06:04:28.964Z,4
2019-05-03T06:05:39.827Z,8
2019-05-03T06:06:50.002Z,4
2019-05-03T06:08:01.446Z,4
2019-05-03T06:09:12.125Z,4
2019-05-03T06:10:24.815Z,4
2019-05-03T06:11:34.855Z,4
2019-05-03T06:12:45.394Z,4
2019-05-03T06:13:56.978Z,4
2019-05-03T06:15:07.178Z,0
2019-05-03T06:16:17.981Z,4
2019-05-03T06:17:29.046Z,4
2019-05-03T06:18:39.927Z,4
2019-05-03T06:19:49.515Z,4
2019-05-03T06:20:58.700Z,8
2019-05-03T06:22:09.617Z,12
2019-05-03T06:23:19.018Z,8
2019-05-03T06:24:29.487Z,8
2019-05-03T06:25:40.194Z,12
2019-05-03T06:26:51.497Z,8
2019-05-03T06:28:14.254Z,12
2019-05-03T06:29:29.642Z,16
2019-05-03T06:30:39.644Z,12
2019-05-03T06:31:49.466Z,16
2019-05-03T06:32:59.991Z,12
2019-05-03T06:34:11.184Z,12
2019-05-03T06:35:24.260Z,12
2019-05-03T06:36:35.377Z,12
2019-05-03T06:37:45.833Z,12
2019-05-03T06:38:57.110Z,16
2019-05-03T06:40:08.470Z,16
2019-05-03T06:41:19.427Z,16
2019-05-03T06:42:30.409Z,16
2019-05-03T06:43:49.502Z,20
2019-05-03T06:45:08.129Z,16
2019-05-03T06:46:35.538Z,16
2019-05-03T06:47:52.644Z,16
2019-05-03T06:49:12.513Z,16
2019-05-03T06:50:32.323Z,16
2019-05-03T06:51:50.620Z,16
2019-05-03T06:53:12.966Z,16
2019-05-03T06:54:35.369Z,16
2019-05-03T06:55:55.385Z,20
2019-05-03T06:57:14.678Z,20
2019-05-03T06:58:40.975Z,20
2019-05-03T06:59:51.964Z,16
2019-05-03T07:01:02.127Z,16
2019-05-03T07:02:14.643Z,12
2019-05-03T07:03:25.145Z,12
2019-05-03T07:04:34.759Z,24
2019-05-03T07:05:44.410Z,20
2019-05-03T07:06:55.117Z,20
2019-05-03T07:08:05.127Z,32
2019-05-03T07:09:16.807Z,20
2019-05-03T07:10:27.157Z,20
2019-05-03T07:11:37.057Z,40
2019-05-03T07:12:47.891Z,24
2019-05-03T07:13:59.520Z,16
2019-05-03T07:15:09.820Z,40
2019-05-03T07:16:19.543Z,28
2019-05-03T07:17:29.704Z,12
2019-05-03T07:18:39.535Z,16
2019-05-03T07:19:50.694Z,16
2019-05-03T07:21:04.829Z,16
2019-05-03T07:22:15.219Z,12
2019-05-03T07:23:26.957Z,24
2019-05-03T07:24:42.274Z,12
2019-05-03T07:25:55.023Z,12
2019-05-03T07:27:07.906Z,12
2019-05-03T07:28:19.406Z,16
2019-05-03T07:29:30.111Z,16
2019-05-03T07:30:41.885Z,20
2019-05-03T07:31:54.677Z,24
2019-05-03T07:33:04.806Z,24
2019-05-03T07:34:15.543Z,16
2019-05-03T07:35:27.240Z,12
2019-05-03T07:36:38.042Z,16
2019-05-03T07:37:49.840Z,28
2019-05-03T07:39:00.439Z,8
2019-05-03T07:40:11.952Z,12
2019-05-03T07:41:25.027Z,12
2019-05-03T07:42:36.890Z,8
2019-05-03T07:43:47.548Z,12
2019-05-03T07:44:58.435Z,8
2019-05-03T07:46:10.340Z,12
2019-05-03T07:47:22.100Z,12
2019-05-03T07:48:32.845Z,12
2019-05-03T07:49:44.466Z,16
2019-05-03T07:50:54.625Z,16
2019-05-03T07:52:05.775Z,12
2019-05-03T07:53:17.529Z,12
2019-05-03T07:54:27.092Z,12
2019-05-03T07:55:37.685Z,12
2019-05-03T07:56:49.100Z,12
2019-05-03T07:58:00.001Z,12
2019-05-03T07:59:14.815Z,12
2019-05-03T08:00:25.317Z,16
2019-05-03T08:01:35.515Z,12
2019-05-03T08:02:47.150Z,16
2019-05-03T08:03:57.663Z,20
2019-05-03T08:05:07.705Z,16
2019-05-03T08:06:17.474Z,16
2019-05-03T08:07:30.575Z,16
2019-05-03T08:08:40.103Z,16
2019-05-03T08:09:49.872Z,16
2019-05-03T08:10:59.601Z,16
2019-05-03T08:12:09.955Z,16
2019-05-03T08:13:21.637Z,20
2019-05-03T08:14:32.222Z,16
2019-05-03T08:15:44.949Z,16
2019-05-03T08:16:57.124Z,20
2019-05-03T08:18:07.058Z,24
2019-05-03T08:19:17.737Z,24
2019-05-03T08:20:31.341Z,20
2019-05-03T08:21:47.495Z,16
2019-05-03T08:22:59.502Z,16
2019-05-03T08:24:09.483Z,16
2019-05-03T08:25:19.207Z,16
2019-05-03T08:26:30.567Z,16
2019-05-03T08:27:44.517Z,12
2019-05-03T08:28:54.454Z,12
2019-05-03T08:30:04.627Z,12
2019-05-03T08:31:15.029Z,16
2019-05-03T08:32:24.593Z,16
2019-05-03T08:33:35.505Z,16
2019-05-03T08:34:45.258Z,20
2019-05-03T08:35:55.424Z,16
2019-05-03T08:37:05.128Z,16
2019-05-03T08:38:15.249Z,16
2019-05-03T08:39:27.676Z,16
2019-05-03T08:40:37.498Z,16
2019-05-03T08:41:48.884Z,16
2019-05-03T08:42:59.606Z,16
2019-05-03T08:44:09.538Z,16
2019-05-03T08:45:19.170Z,16
2019-05-03T08:46:30.255Z,16
2019-05-03T08:47:41.348Z,16
2019-05-03T08:48:54.783Z,16
2019-05-03T08:50:05.542Z,12
2019-05-03T08:51:17.252Z,12
2019-05-03T08:52:27.048Z,12
2019-05-03T08:53:38.260Z,12
2019-05-03T08:54:49.569Z,12
2019-05-03T08:55:59.904Z,12
2019-05-03T08:57:11.156Z,16
2019-05-03T08:58:22.320Z,16
2019-05-03T08:59:40.640Z,16
2019-05-03T09:00:51.964Z,16
2019-05-03T09:02:17.513Z,20
2019-05-03T09:03:29.394Z,16
2019-05-03T09:04:48.514Z,20
2019-05-03T09:06:00.673Z,16
2019-05-03T09:07:14.684Z,16
2019-05-03T09:08:24.839Z,20
2019-05-03T09:09:34.833Z,16
2019-05-03T09:10:45.928Z,16
2019-05-03T09:11:57.749Z,16
2019-05-03T09:13:11.122Z,16
2019-05-03T09:14:24.311Z,20
2019-05-03T09:15:49.180Z,16
2019-05-03T09:16:59.897Z,16
2019-05-03T09:18:14.932Z,16
2019-05-03T09:19:27.772Z,16
2019-05-03T09:20:40.233Z,12
2019-05-03T09:21:50.460Z,12
2019-05-03T09:23:01.891Z,12
2019-05-03T09:24:12.507Z,16
2019-05-03T09:25:24.204Z,16
2019-05-03T09:26:37.395Z,20
2019-05-03T09:27:47.120Z,20
2019-05-03T09:28:58.054Z,16
2019-05-03T09:30:09.555Z,16
2019-05-03T09:31:20.133Z,16
2019-05-03T09:32:32.460Z,16
2019-05-03T09:33:42.388Z,20
2019-05-03T09:34:52.564Z,16
2019-05-03T09:36:02.258Z,24
2019-05-03T09:37:12.752Z,24
2019-05-03T09:38:22.623Z,20
2019-05-03T09:39:32.786Z,20
2019-05-03T09:40:42.462Z,20
2019-05-03T09:41:55.220Z,20
2019-05-03T09:43:06.822Z,28
2019-05-03T09:44:17.547Z,16
2019-05-03T09:45:26.807Z,48
2019-05-03T09:46:37.857Z,48
2019-05-03T09:47:49.494Z,48
2019-05-03T09:49:18.606Z,24
2019-05-03T09:50:29.081Z,20
2019-05-03T09:51:39.851Z,20
2019-05-03T09:52:52.002Z,36
2019-05-03T09:54:02.587Z,20
2019-05-03T09:55:14.504Z,40
2019-05-03T09:56:25.895Z,44
2019-05-03T09:57:37.105Z,40
2019-05-03T09:58:48.469Z,32
2019-05-03T10:00:07.358Z,44
2019-05-03T10:01:17.317Z,20
2019-05-03T10:02:29.184Z,16
2019-05-03T10:03:41.316Z,40
2019-05-03T10:04:52.424Z,44
2019-05-03T10:06:02.321Z,44
2019-05-03T10:07:11.809Z,24
2019-05-03T10:08:25.239Z,48
2019-05-03T10:09:37.651Z,44
2019-05-03T10:10:47.625Z,16
2019-05-03T10:11:59.882Z,32
2019-05-03T10:13:29.623Z,16
2019-05-03T10:14:39.114Z,16
2019-05-03T10:15:49.920Z,16
2019-05-03T10:17:01.849Z,44
2019-05-03T10:18:17.801Z,24
2019-05-03T10:19:45.030Z,32
2019-05-03T10:20:56.073Z,16
2019-05-03T10:22:07.960Z,20
2019-05-03T10:23:19.417Z,40
2019-05-03T10:24:29.376Z,40
2019-05-03T10:25:42.740Z,40
2019-05-03T10:26:52.718Z,40
2019-05-03T10:28:02.153Z,40
2019-05-03T10:29:15.022Z,40
2019-05-03T10:30:24.455Z,40
2019-05-03T10:31:35.446Z,40
2019-05-03T10:32:47.298Z,16
2019-05-03T10:33:56.480Z,40
2019-05-03T10:35:08.030Z,28
2019-05-03T10:36:20.055Z,40
2019-05-03T10:37:32.064Z,44
2019-05-03T10:38:45.881Z,44
2019-05-03T10:39:56.005Z,36
2019-05-03T10:41:05.797Z,28
2019-05-03T10:42:15.424Z,28
2019-05-03T10:43:27.174Z,16
2019-05-03T10:44:38.252Z,16
2019-05-03T10:45:49.839Z,16
2019-05-03T10:47:00.726Z,16
2019-05-03T10:48:12.291Z,16
2019-05-03T10:49:24.474Z,8
2019-05-03T10:50:34.765Z,8
2019-05-03T10:51:45.169Z,12
2019-05-03T10:52:55.439Z,8
2019-05-03T10:54:05.243Z,12
2019-05-03T10:55:15.867Z,12
2019-05-03T10:56:31.464Z,12
2019-05-03T10:57:44.894Z,36
2019-05-03T10:58:57.306Z,32
2019-05-03T11:00:07.257Z,32
2019-05-03T11:01:47.724Z,36
2019-05-03T11:02:59.824Z,40
2019-05-03T11:04:10.175Z,36
2019-05-03T11:05:21.272Z,36
2019-05-03T11:06:33.461Z,28
2019-05-03T11:07:45.099Z,36
2019-05-03T11:08:56.999Z,32
2019-05-03T11:10:07.733Z,36
2019-05-03T11:11:17.581Z,36
2019-05-03T11:12:27.944Z,36
2019-05-03T11:13:39.725Z,36
2019-05-03T11:14:49.950Z,24
2019-05-03T11:15:59.228Z,16
2019-05-03T11:17:10.239Z,12
2019-05-03T11:18:22.226Z,16
2019-05-03T11:19:34.715Z,24
2019-05-03T11:20:45.246Z,28
2019-05-03T11:21:54.698Z,32
2019-05-03T11:23:05.845Z,28
2019-05-03T11:24:17.233Z,24
2019-05-03T11:25:27.350Z,24
2019-05-03T11:26:39.358Z,20
2019-05-03T11:27:49.289Z,16
2019-05-03T11:29:07.457Z,12
2019-05-03T11:30:19.298Z,12
2019-05-03T11:31:29.443Z,16
2019-05-03T11:32:40.137Z,16
2019-05-03T11:33:50.240Z,24
2019-05-03T11:35:00.003Z,12
2019-05-03T11:36:11.292Z,12
2019-05-03T11:37:22.071Z,16
2019-05-03T11:38:34.790Z,12
2019-05-03T11:39:45.168Z,12
2019-05-03T11:40:55.945Z,20
2019-05-03T11:42:07.141Z,28
2019-05-03T11:43:17.678Z,28
2019-05-03T11:44:29.283Z,20
2019-05-03T11:45:40.211Z,16
2019-05-03T11:46:51.403Z,16
2019-05-03T11:48:02.504Z,16
2019-05-03T11:49:14.696Z,16
2019-05-03T11:50:27.895Z,16
2019-05-03T11:51:37.780Z,12
2019-05-03T11:52:49.726Z,12
2019-05-03T11:53:59.436Z,12
2019-05-03T11:55:18.413Z,12
2019-05-03T11:56:29.649Z,16
2019-05-03T11:57:40.378Z,32
2019-05-03T11:58:54.848Z,32
2019-05-03T12:00:05.323Z,32
2019-05-03T12:01:25.579Z,36
2019-05-03T12:02:35.936Z,32
2019-05-03T12:03:47.616Z,28
2019-05-03T12:04:57.725Z,24
2019-05-03T12:06:09.728Z,28
2019-05-03T12:07:24.990Z,28
2019-05-03T12:08:49.224Z,36
2019-05-03T12:09:59.531Z,20
2019-05-03T12:11:10.400Z,36
2019-05-03T12:12:21.894Z,40
2019-05-03T12:13:31.632Z,40
2019-05-03T12:14:41.578Z,40
2019-05-03T12:15:52.726Z,36
2019-05-03T12:17:34.828Z,40
2019-05-03T12:19:13.868Z,44
2019-05-03T12:20:40.360Z,40
2019-05-03T12:21:56.273Z,44
2019-05-03T12:23:12.324Z,36
2019-05-03T12:24:29.644Z,36
2019-05-03T12:25:48.663Z,40
2019-05-03T12:27:01.061Z,40
2019-05-03T12:28:15.147Z,40
2019-05-03T12:29:26.637Z,40
2019-05-03T12:30:37.737Z,40
2019-05-03T12:31:50.363Z,40
2019-05-03T12:33:01.899Z,24
2019-05-03T12:34:15.614Z,12
2019-05-03T12:35:27.139Z,8
2019-05-03T12:36:41.288Z,12
2019-05-03T12:37:51.051Z,8
2019-05-03T12:39:05.534Z,12
2019-05-03T12:40:32.440Z,44
2019-05-03T12:41:42.464Z,40
2019-05-03T12:42:57.635Z,16
2019-05-03T12:44:07.124Z,44
2019-05-03T12:45:17.739Z,16
2019-05-03T12:46:28.734Z,8
2019-05-03T12:47:39.319Z,12
2019-05-03T12:48:49.367Z,12
2019-05-03T12:50:00.459Z,12
2019-05-03T12:51:16.977Z,16
2019-05-03T12:52:31.173Z,16
2019-05-03T12:53:43.803Z,12
2019-05-03T12:54:55.161Z,16
2019-05-03T12:56:14.031Z,56
2019-05-03T12:57:31.814Z,52
2019-05-03T12:58:41.941Z,52
2019-05-03T12:59:52.666Z,48
2019-05-03T13:01:04.904Z,36
2019-05-03T13:02:15.473Z,48
2019-05-03T13:03:27.072Z,56
2019-05-03T13:04:36.290Z,48
2019-05-03T13:05:47.465Z,20
2019-05-03T13:06:57.396Z,24
2019-05-03T13:08:07.730Z,20
2019-05-03T13:09:18.461Z,56
2019-05-03T13:10:31.407Z,32
2019-05-03T13:12:01.088Z,16
2019-05-03T13:13:14.506Z,64
2019-05-03T13:14:24.921Z,16
2019-05-03T13:15:35.173Z,12
2019-05-03T13:16:46.925Z,12
2019-05-03T13:17:57.815Z,16
2019-05-03T13:19:08.098Z,28
2019-05-03T13:20:17.546Z,16
2019-05-03T13:21:27.758Z,48
2019-05-03T13:22:37.256Z,20
2019-05-03T13:23:47.759Z,32
2019-05-03T13:24:59.287Z,12
2019-05-03T13:26:10.368Z,12
2019-05-03T13:27:22.038Z,16
2019-05-03T13:28:33.042Z,16
2019-05-03T13:29:42.539Z,24
2019-05-03T13:30:54.481Z,24
2019-05-03T13:32:10.475Z,20
2019-05-03T13:33:21.794Z,24
2019-05-03T13:34:31.754Z,20
2019-05-03T13:35:44.436Z,16
2019-05-03T13:36:54.930Z,16
2019-05-03T13:38:04.469Z,16
2019-05-03T13:39:20.659Z,16
2019-05-03T13:40:35.842Z,12
2019-05-03T13:41:47.872Z,12
2019-05-03T13:43:10.653Z,12
2019-05-03T13:44:22.490Z,16
2019-05-03T13:45:31.981Z,16
2019-05-03T13:46:44.484Z,16
2019-05-03T13:47:55.226Z,12
2019-05-03T13:49:05.441Z,12
2019-05-03T13:50:17.344Z,12
2019-05-03T13:51:27.840Z,12
2019-05-03T13:52:39.459Z,12
2019-05-03T13:53:48.629Z,12
2019-05-03T13:54:59.396Z,12
2019-05-03T13:56:09.442Z,12
2019-05-03T13:57:19.823Z,8
2019-05-03T13:58:31.013Z,8
2019-05-03T13:59:44.814Z,12
2019-05-03T14:00:57.429Z,12
2019-05-03T14:02:24.078Z,12
2019-05-03T14:03:34.662Z,8
2019-05-03T14:04:58.118Z,8
2019-05-03T14:06:12.883Z,12
2019-05-03T14:07:22.094Z,12
2019-05-03T14:08:32.348Z,12
2019-05-03T14:09:41.724Z,12
2019-05-03T14:10:52.733Z,12
2019-05-03T14:12:05.458Z,12
2019-05-03T14:13:15.810Z,12
2019-05-03T14:14:25.808Z,8
2019-05-03T14:15:37.284Z,8
2019-05-03T14:16:47.655Z,8
2019-05-03T14:17:57.202Z,8
2019-05-03T14:19:07.710Z,12
2019-05-03T14:20:19.505Z,8
2019-05-03T14:21:29.372Z,12
2019-05-03T14:22:40.336Z,12
2019-05-03T14:23:51.749Z,12
2019-05-03T14:25:00.949Z,12
2019-05-03T14:26:11.998Z,8
2019-05-03T14:27:25.374Z,8
2019-05-03T14:28:34.633Z,12
2019-05-03T14:29:45.413Z,12
2019-05-03T14:30:57.258Z,16
2019-05-03T14:32:07.696Z,12
2019-05-03T14:33:17.508Z,12
2019-05-03T14:34:27.932Z,16
2019-05-03T14:35:39.257Z,12
2019-05-03T14:36:49.841Z,12
2019-05-03T14:38:02.000Z,12
2019-05-03T14:39:17.294Z,12
2019-05-03T14:40:27.605Z,12
2019-05-03T14:41:36.887Z,8
2019-05-03T14:42:46.863Z,8
2019-05-03T14:43:57.898Z,8
2019-05-03T14:45:09.099Z,8
2019-05-03T14:46:36.108Z,8
2019-05-03T14:47:45.496Z,8
2019-05-03T14:48:54.997Z,8
2019-05-03T14:50:05.546Z,8
2019-05-03T14:51:17.091Z,8
2019-05-03T14:52:28.639Z,8
2019-05-03T14:53:39.433Z,8
2019-05-03T14:54:49.908Z,8
2019-05-03T14:55:59.337Z,4
2019-05-03T14:57:08.766Z,8
2019-05-03T14:58:20.119Z,4
2019-05-03T14:59:30.710Z,4
2019-05-03T15:00:42.288Z,8
2019-05-03T15:01:52.556Z,8
2019-05-03T15:03:07.144Z,8
2019-05-03T15:04:17.597Z,8
2019-05-03T15:05:29.589Z,8
2019-05-03T15:06:40.287Z,8
2019-05-03T15:07:50.509Z,8
2019-05-03T15:09:05.315Z,4
2019-05-03T15:10:17.173Z,4
2019-05-03T15:11:26.616Z,4
2019-05-03T15:12:38.055Z,4
2019-05-03T15:13:48.020Z,4
2019-05-03T15:14:58.906Z,4
2019-05-03T15:16:09.893Z,4
2019-05-03T15:17:21.249Z,4
2019-05-03T15:18:34.749Z,4
2019-05-03T15:19:45.325Z,4
2019-05-03T15:20:57.280Z,8
2019-05-03T15:22:08.101Z,8
2019-05-03T15:23:19.494Z,4
2019-05-03T15:24:29.787Z,4
2019-05-03T15:25:41.497Z,4
2019-05-03T15:26:52.165Z,4
2019-05-03T15:28:04.962Z,4
2019-05-03T15:29:15.534Z,0
2019-05-03T15:30:25.655Z,0
2019-05-03T15:31:35.412Z,0
2019-05-03T15:33:00.770Z,4
2019-05-03T15:34:12.159Z,4
2019-05-03T15:35:22.679Z,4
2019-05-03T15:36:33.318Z,4
2019-05-03T15:37:45.088Z,0
2019-05-03T15:38:55.190Z,4
2019-05-03T15:40:06.114Z,4
2019-05-03T15:41:17.122Z,4
2019-05-03T15:42:26.562Z,4
2019-05-03T15:43:37.289Z,4
2019-05-03T15:44:47.451Z,4
2019-05-03T15:45:56.996Z,4
2019-05-03T15:47:14.656Z,4
2019-05-03T15:48:24.618Z,4
2019-05-03T15:49:35.635Z,4
2019-05-03T15:50:47.071Z,4
2019-05-03T15:51:58.659Z,4
2019-05-03T15:53:09.227Z,4
2019-05-03T15:54:19.893Z,4
2019-05-03T15:55:29.464Z,0
2019-05-03T15:56:38.690Z,0
2019-05-03T15:57:49.065Z,0
2019-05-03T15:58:59.796Z,4
2019-05-03T16:00:10.314Z,0
2019-05-03T16:01:19.914Z,4
2019-05-03T16:02:29.351Z,4
2019-05-03T16:03:40.355Z,4
2019-05-03T16:04:51.692Z,4
2019-05-03T16:06:07.189Z,0
2019-05-03T16:07:16.625Z,4
2019-05-03T16:08:27.271Z,4
2019-05-03T16:09:37.403Z,4
2019-05-03T16:10:48.175Z,4
2019-05-03T16:11:57.798Z,4
2019-05-03T16:13:07.474Z,4
2019-05-03T16:14:17.501Z,4
2019-05-03T16:15:29.320Z,4
2019-05-03T16:16:39.703Z,4
2019-05-03T16:17:49.778Z,4
2019-05-03T16:18:58.957Z,4
2019-05-03T16:20:09.684Z,4
2019-05-03T16:21:21.242Z,4
2019-05-03T16:22:32.934Z,4
2019-05-03T16:23:41.853Z,0
2019-05-03T16:24:55.647Z,4
2019-05-03T16:26:07.367Z,4
2019-05-03T16:27:18.821Z,4
2019-05-03T16:28:29.415Z,4
2019-05-03T16:29:38.931Z,4
2019-05-03T16:30:50.051Z,0
2019-05-03T16:32:00.997Z,0
2019-05-03T16:33:29.021Z,0
2019-05-03T16:34:39.937Z,0
2019-05-03T16:35:51.617Z,0
2019-05-03T16:37:04.262Z,0
2019-05-03T16:38:15.653Z,0
2019-05-03T16:39:27.145Z,4
2019-05-03T16:40:36.955Z,4
2019-05-03T16:41:47.156Z,0
2019-05-03T16:42:56.357Z,0
2019-05-03T16:44:05.806Z,0
2019-05-03T16:45:17.223Z,0
2019-05-03T16:46:26.115Z,4
2019-05-03T16:47:37.367Z,4
2019-05-03T16:48:47.311Z,4
2019-05-03T16:49:56.240Z,4
2019-05-03T16:51:05.454Z,4
2019-05-03T16:52:17.565Z,4
2019-05-03T16:53:27.969Z,4
2019-05-03T16:54:37.438Z,4
2019-05-03T16:55:46.846Z,4
2019-05-03T16:56:57.381Z,4
2019-05-03T16:58:06.855Z,4
2019-05-03T16:59:19.327Z,4
2019-05-03T17:00:29.883Z,0
2019-05-03T17:01:39.641Z,4
2019-05-03T17:02:49.122Z,0
2019-05-03T17:03:59.538Z,4
2019-05-03T17:05:12.037Z,4
2019-05-03T17:06:21.804Z,4
2019-05-03T17:07:31.116Z,4
2019-05-03T17:08:42.138Z,4
2019-05-03T17:09:52.603Z,4
2019-05-03T17:11:05.605Z,4
2019-05-03T17:12:17.177Z,4
2019-05-03T17:13:27.682Z,4
2019-05-03T17:14:38.900Z,4
2019-05-03T17:15:48.123Z,0
2019-05-03T17:16:57.825Z,0
2019-05-03T17:18:06.754Z,4
2019-05-03T17:19:17.367Z,4
2019-05-03T17:20:27.608Z,4
2019-05-03T17:21:37.459Z,4
2019-05-03T17:22:47.460Z,4
2019-05-03T17:23:57.485Z,4
2019-05-03T17:25:09.161Z,0
2019-05-03T17:26:21.777Z,0
2019-05-03T17:27:34.006Z,0